Terminal Aerodrome Forecast
Issued by NWS Atlanta, GA

Home | Current Version | Previous Version | Text Only | Print | Product List | Glossary On
Versions: 1 2 3 4 5 6 7 8 9 10 11 12 13 14 15 16 17 18 19 20 21 22 23 24 25 26 27 28 29 30 31
000
FTUS42 KFFC 301729
TAFAHN
TAF
KAHN 301729Z 3018/3118 07009G16KT P6SM BKN045
     FM302000 07010KT P6SM VCSH BKN040
     FM310200 07005KT P6SM SCT040
     FM311000 04007KT P6SM SCT120
     FM311400 05009KT P6SM FEW030
     FM311600 06006KT P6SM SCT050=

USA.gov is the U.S. government's official web portal to all federal, state and local government web resources and services.